Kaprifol — 5BXX2 — position and weather

sailwx.info

Track history (hours):
 
Tides and Currents Weather Stations Pressure Air Temp Water Temp Dewpoint Dewpoint Depression Visibility Wind Speed Wind Dir Waves Ship Positions

Kaprifol

Last reported at 2016-Dec-11 05:33 UTC. Time now 2016-Dec-11 06:12 UTC.
Position N 52°28' E 004°19'.

Length 90 m; draft 5.5 m.

Type: Tanker. MMSI: 210445000.

Date/timePositionNaut miles runAvg speedWind from/ knotsBaromVisibWave heightAir tempDewpointWater temp
2016-Dec-11 05:33N 52°28' E 004°19'10 9.6
2016-Dec-11 04:33N 52°28' E 004°03'15 7.4
2016-Dec-11 02:31N 52°14' E 003°53'9 9.3
2016-Dec-11 01:33N 52°05' E 003°56'7 7.3
2016-Dec-11 00:33N 51°59' E 004°03'9 8.8
2016-Dec-10 23:33N 51°55' E 004°15'4 3.7
2016-Dec-10 22:31N 51°54' E 004°21'0 0.0
2016-Dec-10 21:31N 51°54' E 004°21'0 0.0
2016-Dec-10 20:31N 51°54' E 004°21'0 0.0
2016-Dec-10 19:31N 51°54' E 004°21'0 0.0
2016-Dec-10 18:28N 51°54' E 004°21'0 0.0
2016-Dec-10 17:31N 51°54' E 004°21'0 0.0
2016-Dec-10 16:34N 51°54' E 004°21'0 0.0
2016-Dec-10 15:33N 51°54' E 004°21'0 0.0
2016-Dec-10 14:33N 51°54' E 004°21'0 0.0
2016-Dec-10 13:33N 51°54' E 004°21'0 0.0
2016-Dec-10 12:34N 51°54' E 004°21'0 0.0
2016-Dec-10 11:33N 51°54' E 004°21'0 0.0
2016-Dec-10 10:33N 51°54' E 004°21'0 0.0
2016-Dec-10 09:33N 51°54' E 004°21'0 0.0
2016-Dec-10 08:33N 51°54' E 004°21'0 0.0
2016-Dec-10 07:33N 51°54' E 004°21'0 0.0
2016-Dec-10 06:34N 51°54' E 004°21'0 0.0
2016-Dec-10 05:33N 51°54' E 004°21'0 0.0
2016-Dec-10 04:34N 51°54' E 004°21'0 0.0
2016-Dec-10 03:33N 51°54' E 004°21'0 0.0
2016-Dec-10 02:33N 51°54' E 004°21'0 0.0
2016-Dec-10 01:33N 51°54' E 004°21'0 0.0
2016-Dec-10 00:34N 51°54' E 004°21'0 0.0
2016-Dec-09 23:33N 51°54' E 004°21'0 0.0
2016-Dec-09 22:33N 51°54' E 004°21'3 2.6
2016-Dec-09 21:33N 51°52' E 004°21'9 8.7
2016-Dec-09 20:33N 51°49' E 004°34'3 2.8
2016-Dec-09 19:33N 51°47' E 004°38'0 0.0
2016-Dec-09 18:33N 51°47' E 004°38'0 0.0
2016-Dec-09 17:33N 51°47' E 004°38'0 0.0
2016-Dec-09 16:33N 51°47' E 004°38'0 0.0
2016-Dec-09 15:33N 51°47' E 004°38'0 0.0
2016-Dec-09 14:33N 51°47' E 004°38'0 0.0
2016-Dec-09 13:33N 51°47' E 004°38'0 0.0
2016-Dec-09 12:33N 51°47' E 004°38'0 0.0
2016-Dec-09 11:33N 51°47' E 004°38'0 0.0
2016-Dec-09 10:33N 51°47' E 004°38'0 0.0
2016-Dec-09 09:33N 51°47' E 004°38'0 0.0
2016-Dec-09 08:33N 51°47' E 004°38'0 0.0
2016-Dec-09 07:29N 51°47' E 004°38'0 0.0
2016-Dec-09 06:11N 51°47' E 004°38'0 0.0
2016-Dec-09 05:32N 51°47' E 004°38'0 0.0
2016-Dec-09 04:32N 51°47' E 004°38'0 0.0
2016-Dec-09 03:32N 51°47' E 004°38'0 0.0
2016-Dec-09 02:32N 51°47' E 004°38'0 0.0
2016-Dec-09 01:29N 51°47' E 004°38'0 0.0
2016-Dec-09 00:32N 51°47' E 004°38'0 0.0
2016-Dec-08 23:32N 51°47' E 004°38'0 0.0
2016-Dec-08 22:32N 51°47' E 004°38'0 0.0
2016-Dec-08 21:32N 51°47' E 004°38'0 0.0
2016-Dec-08 20:32N 51°47' E 004°38'0 0.0
2016-Dec-08 19:32N 51°47' E 004°38'0 0.0
2016-Dec-08 18:32N 51°47' E 004°38'0 0.0
2016-Dec-08 17:32N 51°47' E 004°38'0 0.0
2016-Dec-08 16:32N 51°47' E 004°38'0 0.0
2016-Dec-08 15:32N 51°47' E 004°38'0 0.0
2016-Dec-08 14:32N 51°47' E 004°38'0 0.0
2016-Dec-08 13:32N 51°47' E 004°38'0 0.0
2016-Dec-08 12:32N 51°47' E 004°38'0 0.0
2016-Dec-08 11:32N 51°47' E 004°38'0 0.0
2016-Dec-08 10:32N 51°47' E 004°38'0 0.0
2016-Dec-08 09:32N 51°47' E 004°38'0 0.0
2016-Dec-08 08:32N 51°47' E 004°38'0 0.0
2016-Dec-08 07:29N 51°47' E 004°38'0 0.0
2016-Dec-08 06:32N 51°47' E 004°38'0 0.0
2016-Dec-08 05:32N 51°47' E 004°38'0 0.0
2016-Dec-08 04:32N 51°47' E 004°38'0 0.0
2016-Dec-08 03:29N 51°47' E 004°38'0 0.0
2016-Dec-08 02:32N 51°47' E 004°38'0 0.0
2016-Dec-08 01:23N 51°47' E 004°38'0 0.0
2016-Dec-08 00:31N 51°47' E 004°38'0 0.0
2016-Dec-07 23:17N 51°47' E 004°38'0 0.0
2016-Dec-07 22:31N 51°47' E 004°38'0 0.0
2016-Dec-07 21:31N 51°47' E 004°38'0 0.0
2016-Dec-07 20:26N 51°47' E 004°38'0 0.0
2016-Dec-07 19:31N 51°47' E 004°38'0 0.0
2016-Dec-07 18:31N 51°47' E 004°38'0 0.0
2016-Dec-07 16:19N 51°47' E 004°38'0 0.0
2016-Dec-07 15:28N 51°47' E 004°38'0 0.0
2016-Dec-07 14:31N 51°47' E 004°38'0 0.0
2016-Dec-07 13:25N 51°47' E 004°38'0 0.0
2016-Dec-07 12:28N 51°47' E 004°38'0 0.0
2016-Dec-07 11:31N 51°47' E 004°38'0 0.0
2016-Dec-07 10:31N 51°47' E 004°38'0 0.0
2016-Dec-07 09:28N 51°47' E 004°38'0 0.0
2016-Dec-07 08:31N 51°47' E 004°38'0 0.0
2016-Dec-07 07:28N 51°47' E 004°38'0 0.0
2016-Dec-07 06:31N 51°47' E 004°38'0 0.0
2016-Dec-07 05:28N 51°47' E 004°38'0 0.0
2016-Dec-07 04:31N 51°47' E 004°38'0 0.0
2016-Dec-07 03:31N 51°47' E 004°38'0 0.0
2016-Dec-07 02:31N 51°47' E 004°38'0 0.0
2016-Dec-07 01:31N 51°47' E 004°38'0 0.0
2016-Dec-07 00:31N 51°47' E 004°38'0 0.0
2016-Dec-06 23:31N 51°47' E 004°38'0 0.0
2016-Dec-06 22:31N 51°47' E 004°38'0 0.0
2016-Dec-06 21:33N 51°47' E 004°38'0 0.0
2016-Dec-06 20:31N 51°47' E 004°38'0 0.0
2016-Dec-06 18:33N 51°47' E 004°38'0 0.0
2016-Dec-06 17:33N 51°47' E 004°38'0 0.0
2016-Dec-06 16:33N 51°47' E 004°38'0 0.0
2016-Dec-06 15:33N 51°47' E 004°38'0 0.0
2016-Dec-06 14:33N 51°47' E 004°38'0 0.0
2016-Dec-06 13:33N 51°47' E 004°38'0 0.0
2016-Dec-06 12:33N 51°47' E 004°38'0 0.0
2016-Dec-06 11:33N 51°47' E 004°38'6 5.6
2016-Dec-06 10:33N 51°50' E 004°30'7 7.4
2016-Dec-06 09:33N 51°53' E 004°19'9 8.9
2016-Dec-06 08:33N 51°58' E 004°07'1010.3
2016-Dec-06 07:33N 52°02' E 003°52'8 8.1
2016-Dec-06 06:33N 52°09' E 003°47'10 9.3
2016-Dec-06 05:30N 52°19' E 003°48'9 9.9
2016-Dec-06 04:33N 52°28' E 003°51'1411.0
2016-Dec-06 03:18N 52°42' E 003°55'1211.5
2016-Dec-06 02:14N 52°54' E 003°59'811.2
2016-Dec-06 01:33N 53°00' E 004°07'1111.5
2016-Dec-06 00:33N 53°08' E 004°20'1111.0
2016-Dec-05 23:33N 53°18' E 004°29'  
2016-Dec-03 04:32N 61°46' E 005°18'0 0.0
2016-Dec-03 03:33N 61°46' E 005°18'0 0.0
2016-Dec-03 02:32N 61°46' E 005°18'0 0.0
2016-Dec-03 01:33N 61°46' E 005°18'0 0.0
2016-Dec-03 00:32N 61°46' E 005°18'0 0.0
2016-Dec-02 23:31N 61°46' E 005°18'0 0.0
2016-Dec-02 22:33N 61°46' E 005°18'0 0.0
2016-Dec-02 21:33N 61°46' E 005°18'0 0.0
2016-Dec-02 20:33N 61°46' E 005°18'0 0.0
2016-Dec-02 19:33N 61°46' E 005°18'3 2.6
2016-Dec-02 18:33N 61°46' E 005°12'7 6.8
2016-Dec-02 17:33N 61°45' E 004°58'7 6.9
2016-Dec-02 16:33N 61°42' E 004°45'7 7.2
2016-Dec-02 15:33N 61°41' E 004°30'6 5.6
2016-Dec-02 14:33N 61°36' E 004°25'6 5.9
2016-Dec-02 13:33N 61°30' E 004°24'6 6.2
2016-Dec-02 12:33N 61°24' E 004°23'6 6.1
2016-Dec-02 11:32N 61°17' E 004°22'1110.9
2016-Dec-02 10:33N 61°07' E 004°20'4950.0
2016-Dec-02 09:33N 60°17' E 004°29'5 5.1
2016-Dec-02 08:32N 60°12' E 004°30'5 5.0
2016-Dec-02 07:33N 60°07' E 004°32'5 4.7
2016-Dec-02 06:30N 60°02' E 004°33'5 4.9
2016-Dec-02 05:33N 59°58' E 004°34'5 4.8
2016-Dec-02 04:33N 59°53' E 004°35'5 4.9
2016-Dec-02 03:32N 59°48' E 004°37'5 4.8
2016-Dec-02 02:33N 59°43' E 004°38'5 4.7
2016-Dec-02 01:33N 59°39' E 004°40'5 4.6
2016-Dec-02 00:33N 59°35' E 004°44'4 4.2
2016-Dec-01 23:32N 59°31' E 004°47'4 4.2
2016-Dec-01 22:33N 59°27' E 004°51'4 3.8
2016-Dec-01 21:34N 59°24' E 004°54'3 3.5
2016-Dec-01 20:33N 59°21' E 004°58'4 4.1
2016-Dec-01 19:32N 59°16' E 004°58'4 4.3
2016-Dec-01 18:32N 59°12' E 005°01'6 5.3
2016-Dec-01 17:21N 59°07' E 005°08'6 7.3
2016-Dec-01 16:33N 59°06' E 005°19'10 9.5
2016-Dec-01 15:33N 59°09' E 005°37'10 9.6
2016-Dec-01 14:33N 59°06' E 005°55'3 1.3
2016-Dec-01 12:33N 59°07' E 006°00'0 0.0
2016-Dec-01 08:23N 59°07' E 006°00'0 0.0
2016-Dec-01 07:23N 59°07' E 006°00'0 0.0
2016-Dec-01 06:23N 59°07' E 006°00'  
Track history (hours):
 
Tides and Currents Weather Stations Pressure Air Temp Water Temp Dewpoint Dewpoint Depression Visibility Wind Speed Wind Dir Waves Ship Positions

Kaprifol

Last reported at 2016-Dec-11 05:33 UTC. Time now 2016-Dec-11 06:12 UTC.
Position N 52°28' E 004°19'.

Length 90 m; draft 5.5 m.

Type: Tanker. MMSI: 210445000.

Date/timePositionNaut miles runAvg speedWind from/ knotsBaromVisibWave heightAir tempDewpointWater temp
2016-Dec-11 05:33N 52°28' E 004°19'10 9.6
2016-Dec-11 04:33N 52°28' E 004°03'15 7.4
2016-Dec-11 02:31N 52°14' E 003°53'9 9.3
2016-Dec-11 01:33N 52°05' E 003°56'7 7.3
2016-Dec-11 00:33N 51°59' E 004°03'9 8.8
2016-Dec-10 23:33N 51°55' E 004°15'4 3.7
2016-Dec-10 22:31N 51°54' E 004°21'0 0.0
2016-Dec-10 21:31N 51°54' E 004°21'0 0.0
2016-Dec-10 20:31N 51°54' E 004°21'0 0.0
2016-Dec-10 19:31N 51°54' E 004°21'0 0.0
2016-Dec-10 18:28N 51°54' E 004°21'0 0.0
2016-Dec-10 17:31N 51°54' E 004°21'0 0.0
2016-Dec-10 16:34N 51°54' E 004°21'0 0.0
2016-Dec-10 15:33N 51°54' E 004°21'0 0.0
2016-Dec-10 14:33N 51°54' E 004°21'0 0.0
2016-Dec-10 13:33N 51°54' E 004°21'0 0.0
2016-Dec-10 12:34N 51°54' E 004°21'0 0.0
2016-Dec-10 11:33N 51°54' E 004°21'0 0.0
2016-Dec-10 10:33N 51°54' E 004°21'0 0.0
2016-Dec-10 09:33N 51°54' E 004°21'0 0.0
2016-Dec-10 08:33N 51°54' E 004°21'0 0.0
2016-Dec-10 07:33N 51°54' E 004°21'0 0.0
2016-Dec-10 06:34N 51°54' E 004°21'0 0.0
2016-Dec-10 05:33N 51°54' E 004°21'0 0.0
2016-Dec-10 04:34N 51°54' E 004°21'0 0.0
2016-Dec-10 03:33N 51°54' E 004°21'0 0.0
2016-Dec-10 02:33N 51°54' E 004°21'0 0.0
2016-Dec-10 01:33N 51°54' E 004°21'0 0.0
2016-Dec-10 00:34N 51°54' E 004°21'0 0.0
2016-Dec-09 23:33N 51°54' E 004°21'0 0.0
2016-Dec-09 22:33N 51°54' E 004°21'3 2.6
2016-Dec-09 21:33N 51°52' E 004°21'9 8.7
2016-Dec-09 20:33N 51°49' E 004°34'3 2.8
2016-Dec-09 19:33N 51°47' E 004°38'0 0.0
2016-Dec-09 18:33N 51°47' E 004°38'0 0.0
2016-Dec-09 17:33N 51°47' E 004°38'0 0.0
2016-Dec-09 16:33N 51°47' E 004°38'0 0.0
2016-Dec-09 15:33N 51°47' E 004°38'0 0.0
2016-Dec-09 14:33N 51°47' E 004°38'0 0.0
2016-Dec-09 13:33N 51°47' E 004°38'0 0.0
2016-Dec-09 12:33N 51°47' E 004°38'0 0.0
2016-Dec-09 11:33N 51°47' E 004°38'0 0.0
2016-Dec-09 10:33N 51°47' E 004°38'0 0.0
2016-Dec-09 09:33N 51°47' E 004°38'0 0.0
2016-Dec-09 08:33N 51°47' E 004°38'0 0.0
2016-Dec-09 07:29N 51°47' E 004°38'0 0.0
2016-Dec-09 06:11N 51°47' E 004°38'0 0.0
2016-Dec-09 05:32N 51°47' E 004°38'0 0.0
2016-Dec-09 04:32N 51°47' E 004°38'0 0.0
2016-Dec-09 03:32N 51°47' E 004°38'0 0.0
2016-Dec-09 02:32N 51°47' E 004°38'0 0.0
2016-Dec-09 01:29N 51°47' E 004°38'0 0.0
2016-Dec-09 00:32N 51°47' E 004°38'0 0.0
2016-Dec-08 23:32N 51°47' E 004°38'0 0.0
2016-Dec-08 22:32N 51°47' E 004°38'0 0.0
2016-Dec-08 21:32N 51°47' E 004°38'0 0.0
2016-Dec-08 20:32N 51°47' E 004°38'0 0.0
2016-Dec-08 19:32N 51°47' E 004°38'0 0.0
2016-Dec-08 18:32N 51°47' E 004°38'0 0.0
2016-Dec-08 17:32N 51°47' E 004°38'0 0.0
2016-Dec-08 16:32N 51°47' E 004°38'0 0.0
2016-Dec-08 15:32N 51°47' E 004°38'0 0.0
2016-Dec-08 14:32N 51°47' E 004°38'0 0.0
2016-Dec-08 13:32N 51°47' E 004°38'0 0.0
2016-Dec-08 12:32N 51°47' E 004°38'0 0.0
2016-Dec-08 11:32N 51°47' E 004°38'0 0.0
2016-Dec-08 10:32N 51°47' E 004°38'0 0.0
2016-Dec-08 09:32N 51°47' E 004°38'0 0.0
2016-Dec-08 08:32N 51°47' E 004°38'0 0.0
2016-Dec-08 07:29N 51°47' E 004°38'0 0.0
2016-Dec-08 06:32N 51°47' E 004°38'0 0.0
2016-Dec-08 05:32N 51°47' E 004°38'0 0.0
2016-Dec-08 04:32N 51°47' E 004°38'0 0.0
2016-Dec-08 03:29N 51°47' E 004°38'0 0.0
2016-Dec-08 02:32N 51°47' E 004°38'0 0.0
2016-Dec-08 01:23N 51°47' E 004°38'0 0.0
2016-Dec-08 00:31N 51°47' E 004°38'0 0.0
2016-Dec-07 23:17N 51°47' E 004°38'0 0.0
2016-Dec-07 22:31N 51°47' E 004°38'0 0.0
2016-Dec-07 21:31N 51°47' E 004°38'0 0.0
2016-Dec-07 20:26N 51°47' E 004°38'0 0.0
2016-Dec-07 19:31N 51°47' E 004°38'0 0.0
2016-Dec-07 18:31N 51°47' E 004°38'0 0.0
2016-Dec-07 16:19N 51°47' E 004°38'0 0.0
2016-Dec-07 15:28N 51°47' E 004°38'0 0.0
2016-Dec-07 14:31N 51°47' E 004°38'0 0.0
2016-Dec-07 13:25N 51°47' E 004°38'0 0.0
2016-Dec-07 12:28N 51°47' E 004°38'0 0.0
2016-Dec-07 11:31N 51°47' E 004°38'0 0.0
2016-Dec-07 10:31N 51°47' E 004°38'0 0.0
2016-Dec-07 09:28N 51°47' E 004°38'0 0.0
2016-Dec-07 08:31N 51°47' E 004°38'0 0.0
2016-Dec-07 07:28N 51°47' E 004°38'0 0.0
2016-Dec-07 06:31N 51°47' E 004°38'0 0.0
2016-Dec-07 05:28N 51°47' E 004°38'0 0.0
2016-Dec-07 04:31N 51°47' E 004°38'0 0.0
2016-Dec-07 03:31N 51°47' E 004°38'0 0.0
2016-Dec-07 02:31N 51°47' E 004°38'0 0.0
2016-Dec-07 01:31N 51°47' E 004°38'0 0.0
2016-Dec-07 00:31N 51°47' E 004°38'0 0.0
2016-Dec-06 23:31N 51°47' E 004°38'0 0.0
2016-Dec-06 22:31N 51°47' E 004°38'0 0.0
2016-Dec-06 21:33N 51°47' E 004°38'0 0.0
2016-Dec-06 20:31N 51°47' E 004°38'0 0.0
2016-Dec-06 18:33N 51°47' E 004°38'0 0.0
2016-Dec-06 17:33N 51°47' E 004°38'0 0.0
2016-Dec-06 16:33N 51°47' E 004°38'0 0.0
2016-Dec-06 15:33N 51°47' E 004°38'0 0.0
2016-Dec-06 14:33N 51°47' E 004°38'0 0.0
2016-Dec-06 13:33N 51°47' E 004°38'0 0.0
2016-Dec-06 12:33N 51°47' E 004°38'0 0.0
2016-Dec-06 11:33N 51°47' E 004°38'6 5.6
2016-Dec-06 10:33N 51°50' E 004°30'7 7.4
2016-Dec-06 09:33N 51°53' E 004°19'9 8.9
2016-Dec-06 08:33N 51°58' E 004°07'1010.3
2016-Dec-06 07:33N 52°02' E 003°52'8 8.1
2016-Dec-06 06:33N 52°09' E 003°47'10 9.3
2016-Dec-06 05:30N 52°19' E 003°48'9 9.9
2016-Dec-06 04:33N 52°28' E 003°51'1411.0
2016-Dec-06 03:18N 52°42' E 003°55'1211.5
2016-Dec-06 02:14N 52°54' E 003°59'811.2
2016-Dec-06 01:33N 53°00' E 004°07'1111.5
2016-Dec-06 00:33N 53°08' E 004°20'1111.0
2016-Dec-05 23:33N 53°18' E 004°29'  
2016-Dec-03 04:32N 61°46' E 005°18'0 0.0
2016-Dec-03 03:33N 61°46' E 005°18'0 0.0
2016-Dec-03 02:32N 61°46' E 005°18'0 0.0
2016-Dec-03 01:33N 61°46' E 005°18'0 0.0
2016-Dec-03 00:32N 61°46' E 005°18'0 0.0
2016-Dec-02 23:31N 61°46' E 005°18'0 0.0
2016-Dec-02 22:33N 61°46' E 005°18'0 0.0
2016-Dec-02 21:33N 61°46' E 005°18'0 0.0
2016-Dec-02 20:33N 61°46' E 005°18'0 0.0
2016-Dec-02 19:33N 61°46' E 005°18'3 2.6
2016-Dec-02 18:33N 61°46' E 005°12'7 6.8
2016-Dec-02 17:33N 61°45' E 004°58'7 6.9
2016-Dec-02 16:33N 61°42' E 004°45'7 7.2
2016-Dec-02 15:33N 61°41' E 004°30'6 5.6
2016-Dec-02 14:33N 61°36' E 004°25'6 5.9
2016-Dec-02 13:33N 61°30' E 004°24'6 6.2
2016-Dec-02 12:33N 61°24' E 004°23'6 6.1
2016-Dec-02 11:32N 61°17' E 004°22'1110.9
2016-Dec-02 10:33N 61°07' E 004°20'4950.0
2016-Dec-02 09:33N 60°17' E 004°29'5 5.1
2016-Dec-02 08:32N 60°12' E 004°30'5 5.0
2016-Dec-02 07:33N 60°07' E 004°32'5 4.7
2016-Dec-02 06:30N 60°02' E 004°33'5 4.9
2016-Dec-02 05:33N 59°58' E 004°34'5 4.8
2016-Dec-02 04:33N 59°53' E 004°35'5 4.9
2016-Dec-02 03:32N 59°48' E 004°37'5 4.8
2016-Dec-02 02:33N 59°43' E 004°38'5 4.7
2016-Dec-02 01:33N 59°39' E 004°40'5 4.6
2016-Dec-02 00:33N 59°35' E 004°44'4 4.2
2016-Dec-01 23:32N 59°31' E 004°47'4 4.2
2016-Dec-01 22:33N 59°27' E 004°51'4 3.8
2016-Dec-01 21:34N 59°24' E 004°54'3 3.5
2016-Dec-01 20:33N 59°21' E 004°58'4 4.1
2016-Dec-01 19:32N 59°16' E 004°58'4 4.3
2016-Dec-01 18:32N 59°12' E 005°01'6 5.3
2016-Dec-01 17:21N 59°07' E 005°08'6 7.3
2016-Dec-01 16:33N 59°06' E 005°19'10 9.5
2016-Dec-01 15:33N 59°09' E 005°37'10 9.6
2016-Dec-01 14:33N 59°06' E 005°55'3 1.3
2016-Dec-01 12:33N 59°07' E 006°00'0 0.0
2016-Dec-01 08:23N 59°07' E 006°00'0 0.0
2016-Dec-01 07:23N 59°07' E 006°00'0 0.0
2016-Dec-01 06:23N 59°07' E 006°00'  

Dump ship's entire track history